createdAt,value
2022-08-07T00:01:44.632Z,23.23
2022-08-07T00:04:45.561Z,23.24
2022-08-07T00:07:50.622Z,23.25
2022-08-07T00:11:02.867Z,23.24
2022-08-07T00:14:09.524Z,23.25
2022-08-07T00:17:16.157Z,23.24
2022-08-07T00:20:30.003Z,23.24
2022-08-07T00:23:40.955Z,23.22
2022-08-07T00:26:58.712Z,23.21
2022-08-07T00:30:02.862Z,23.22
2022-08-07T00:33:07.619Z,23.21
2022-08-07T00:36:11.090Z,23.21
2022-08-07T00:39:20.520Z,23.21
2022-08-07T00:42:28.945Z,23.20
2022-08-07T00:45:32.426Z,23.21
2022-08-07T00:48:42.144Z,23.21
2022-08-07T00:51:56.778Z,23.20
2022-08-07T00:55:04.756Z,23.20
2022-08-07T00:58:13.643Z,23.20
2022-08-07T01:01:17.125Z,23.21
2022-08-07T01:04:24.703Z,23.20
2022-08-07T01:07:31.004Z,23.18
2022-08-07T01:10:35.864Z,23.17
2022-08-07T01:13:39.432Z,23.17
2022-08-07T01:17:00.135Z,23.14
2022-08-07T01:20:10.637Z,23.15
2022-08-07T01:23:25.448Z,23.14
2022-08-07T01:26:40.449Z,23.13
2022-08-07T01:29:44.203Z,23.13
2022-08-07T01:32:47.427Z,23.13
2022-08-07T01:35:53.391Z,23.14
2022-08-07T01:39:00.600Z,23.12
2022-08-07T01:42:37.750Z,23.12
2022-08-07T01:45:37.295Z,23.12
2022-08-07T01:48:50.555Z,23.11
2022-08-07T01:52:04.493Z,23.10
2022-08-07T01:55:22.182Z,23.09
2022-08-07T01:58:33.288Z,23.10
2022-08-07T02:02:02.795Z,23.09
2022-08-07T02:05:15.803Z,23.08
2022-08-07T02:08:41.018Z,23.08
2022-08-07T02:12:04.833Z,23.08
2022-08-07T02:15:13.627Z,23.08
2022-08-07T02:18:20.407Z,23.08
2022-08-07T02:21:24.936Z,23.08
2022-08-07T02:24:30.041Z,23.08
2022-08-07T02:27:36.226Z,23.06
2022-08-07T02:30:45.674Z,23.05
2022-08-07T02:34:03.523Z,23.04
2022-08-07T02:37:14.242Z,23.05
2022-08-07T02:40:31.093Z,23.03
2022-08-07T02:43:42.378Z,23.02
2022-08-07T02:46:54.775Z,23.02
2022-08-07T02:50:00.435Z,23.02
2022-08-07T02:53:11.733Z,23.01
2022-08-07T02:56:21.646Z,23.01
2022-08-07T02:59:28.409Z,23.00
2022-08-07T03:02:42.031Z,22.99
2022-08-07T03:06:00.275Z,22.97
2022-08-07T03:09:04.770Z,22.98
2022-08-07T03:12:21.657Z,22.98
2022-08-07T03:15:56.775Z,22.97
2022-08-07T03:18:53.803Z,22.96
2022-08-07T03:21:58.713Z,22.96
2022-08-07T03:25:02.954Z,22.96
2022-08-07T03:28:37.276Z,22.97
2022-08-07T03:31:46.351Z,22.96
2022-08-07T03:35:01.048Z,22.95
2022-08-07T03:38:20.942Z,22.96
2022-08-07T03:41:42.607Z,22.93
2022-08-07T03:44:53.346Z,22.93
2022-08-07T03:48:00.717Z,22.93
2022-08-07T03:51:05.406Z,22.92
2022-08-07T03:54:35.725Z,22.91
2022-08-07T03:58:34.251Z,22.90
2022-08-07T04:01:13.901Z,22.89
2022-08-07T04:04:21.618Z,22.88
2022-08-07T04:07:28.958Z,22.88
2022-08-07T04:10:54.585Z,22.86
2022-08-07T04:14:37.778Z,22.87
2022-08-07T04:18:56.177Z,22.85
2022-08-07T04:21:00.626Z,22.83
2022-08-07T04:24:07.795Z,22.82
2022-08-07T04:27:15.152Z,22.82
2022-08-07T04:30:35.553Z,22.81
2022-08-07T04:33:55.079Z,22.83
2022-08-07T04:37:02.209Z,22.83
2022-08-07T04:40:12.432Z,22.83
2022-08-07T04:43:19.866Z,22.84
2022-08-07T04:46:35.908Z,22.83
2022-08-07T04:50:03.495Z,22.83
2022-08-07T04:53:40.236Z,22.83
2022-08-07T04:58:15.328Z,22.82
2022-08-07T05:00:18.745Z,22.82
2022-08-07T05:04:00.211Z,22.81
2022-08-07T05:07:20.012Z,22.80
2022-08-07T05:10:36.011Z,22.80
2022-08-07T05:14:52.968Z,22.80
2022-08-07T05:17:13.239Z,22.79
2022-08-07T05:20:40.898Z,22.79
2022-08-07T05:23:49.654Z,22.78
2022-08-07T05:26:58.472Z,22.80
2022-08-07T05:30:04.107Z,22.81
2022-08-07T05:33:08.821Z,22.81
2022-08-07T05:36:22.586Z,22.80
2022-08-07T05:40:13.644Z,22.80
2022-08-07T05:42:56.075Z,22.81
2022-08-07T05:46:02.278Z,22.80
2022-08-07T05:49:11.899Z,22.80
2022-08-07T05:52:17.942Z,22.79
2022-08-07T05:55:26.115Z,22.80
2022-08-07T05:58:52.543Z,22.80
2022-08-07T06:02:00.138Z,22.82
2022-08-07T06:05:08.297Z,22.82
2022-08-07T06:08:31.318Z,22.83
2022-08-07T06:11:35.985Z,22.84
2022-08-07T06:14:42.391Z,22.83
2022-08-07T06:17:55.326Z,22.84
2022-08-07T06:22:16.833Z,22.85
2022-08-07T06:24:46.179Z,22.85
2022-08-07T06:28:01.433Z,22.84
2022-08-07T06:31:08.970Z,22.83
2022-08-07T06:34:12.723Z,22.81
2022-08-07T06:37:17.012Z,22.80
2022-08-07T06:40:21.665Z,22.80
2022-08-07T06:43:39.177Z,22.81
2022-08-07T06:46:53.707Z,22.82
2022-08-07T06:50:14.511Z,22.81
2022-08-07T06:54:11.615Z,22.82
2022-08-07T06:56:50.753Z,22.82
2022-08-07T07:00:13.438Z,22.82
2022-08-07T07:03:39.614Z,22.83
2022-08-07T07:07:00.576Z,22.82
2022-08-07T07:10:04.962Z,22.80
2022-08-07T07:13:15.663Z,22.78
2022-08-07T07:16:21.802Z,22.76
2022-08-07T07:19:56.579Z,22.76
2022-08-07T07:24:08.377Z,22.77
2022-08-07T07:26:35.419Z,22.77
2022-08-07T07:30:07.410Z,22.78
2022-08-07T07:33:09.185Z,22.81
2022-08-07T07:36:17.337Z,22.81
2022-08-07T07:39:22.413Z,22.80
2022-08-07T07:42:32.807Z,22.81
2022-08-07T07:46:36.869Z,22.82
2022-08-07T07:50:31.322Z,22.81
2022-08-07T07:52:29.599Z,22.85
2022-08-07T07:55:37.550Z,22.85
2022-08-07T07:58:50.615Z,22.85
2022-08-07T08:02:03.421Z,22.85
2022-08-07T08:05:14.155Z,22.85
2022-08-07T08:08:35.185Z,22.87
2022-08-07T08:11:59.335Z,22.90
2022-08-07T08:15:06.799Z,22.93
2022-08-07T08:18:17.993Z,22.95
2022-08-07T08:21:55.702Z,22.95
2022-08-07T08:25:41.852Z,22.94
2022-08-07T08:28:47.355Z,22.95
2022-08-07T08:31:58.789Z,22.95
2022-08-07T08:35:20.366Z,22.96
2022-08-07T08:38:29.916Z,22.95
2022-08-07T08:41:57.204Z,22.98
2022-08-07T08:45:14.009Z,23.00
2022-08-07T08:48:28.455Z,23.02
2022-08-07T08:51:49.547Z,23.02
2022-08-07T08:55:21.059Z,23.03
2022-08-07T08:58:54.437Z,23.02
2022-08-07T09:02:08.711Z,23.01
2022-08-07T09:05:36.961Z,22.99
2022-08-07T09:08:55.379Z,22.99
2022-08-07T09:12:30.533Z,22.99
2022-08-07T09:16:21.764Z,22.99
2022-08-07T09:19:52.601Z,22.97
2022-08-07T09:24:32.199Z,22.95
2022-08-07T09:26:27.794Z,22.96
2022-08-07T09:30:03.760Z,22.97
2022-08-07T09:33:24.118Z,22.99
2022-08-07T09:36:43.010Z,22.99
2022-08-07T09:39:57.965Z,23.00
2022-08-07T09:43:14.654Z,23.01
2022-08-07T09:47:52.605Z,23.01
2022-08-07T09:50:19.576Z,23.01
2022-08-07T09:53:25.661Z,23.01
2022-08-07T09:56:48.709Z,23.03
2022-08-07T10:00:15.283Z,23.03
2022-08-07T10:04:06.006Z,23.04
2022-08-07T10:07:39.596Z,23.04
2022-08-07T10:14:30.320Z,22.99
2022-08-07T10:18:01.475Z,22.96
2022-08-07T10:21:50.761Z,22.96
2022-08-07T10:24:58.073Z,22.95
2022-08-07T10:28:16.989Z,22.95
2022-08-07T10:31:39.435Z,22.94
2022-08-07T10:34:55.431Z,22.93
2022-08-07T10:38:35.682Z,22.92
2022-08-07T10:41:51.652Z,22.91
2022-08-07T10:45:10.890Z,22.92
2022-08-07T10:48:37.288Z,22.90
2022-08-07T10:52:01.455Z,22.90
2022-08-07T10:55:36.860Z,22.93
2022-08-07T10:59:00.115Z,22.93
2022-08-07T11:02:12.296Z,22.94
2022-08-07T11:05:50.952Z,22.95
2022-08-07T11:09:01.095Z,22.96
2022-08-07T11:12:12.261Z,22.97
2022-08-07T11:15:26.298Z,22.95
2022-08-07T11:18:39.397Z,22.94
2022-08-07T11:21:51.416Z,22.94
2022-08-07T11:25:06.483Z,22.93
2022-08-07T11:28:16.639Z,22.93
2022-08-07T11:31:30.475Z,22.96
2022-08-07T11:34:46.767Z,22.97
2022-08-07T11:38:17.292Z,22.98
2022-08-07T11:42:00.116Z,22.99
2022-08-07T11:44:57.720Z,23.02
2022-08-07T11:49:27.648Z,23.03
2022-08-07T11:52:37.769Z,23.02
2022-08-07T11:56:15.519Z,23.03
2022-08-07T12:00:12.325Z,23.02
2022-08-07T12:03:45.265Z,23.04
2022-08-07T12:07:03.019Z,23.03
2022-08-07T12:10:19.535Z,23.04
2022-08-07T12:13:35.270Z,23.06
2022-08-07T12:16:47.280Z,23.07
2022-08-07T12:20:04.853Z,23.07
2022-08-07T12:24:05.561Z,23.07
2022-08-07T12:27:14.861Z,23.10
2022-08-07T12:30:23.503Z,23.08
2022-08-07T12:34:01.031Z,23.05
2022-08-07T12:36:57.499Z,23.05
2022-08-07T12:40:19.141Z,23.05
2022-08-07T12:44:02.451Z,23.07
2022-08-07T12:47:09.809Z,23.08
2022-08-07T12:50:33.777Z,23.07
2022-08-07T12:54:02.763Z,23.08
2022-08-07T12:57:19.446Z,23.08
2022-08-07T13:00:33.062Z,23.10
2022-08-07T13:04:13.773Z,23.11
2022-08-07T13:08:12.913Z,23.13
2022-08-07T13:12:01.867Z,23.15
2022-08-07T13:15:23.512Z,23.13
2022-08-07T13:18:43.057Z,23.14
2022-08-07T13:22:03.053Z,23.13
2022-08-07T13:25:29.015Z,23.15
2022-08-07T13:28:40.576Z,23.15
2022-08-07T13:31:57.344Z,23.16
2022-08-07T13:35:08.937Z,23.17
2022-08-07T13:38:18.806Z,23.17
2022-08-07T13:41:33.215Z,23.20
2022-08-07T13:44:39.528Z,23.23
2022-08-07T13:48:06.075Z,23.23
2022-08-07T13:51:27.615Z,23.24
2022-08-07T13:54:41.101Z,23.22
2022-08-07T13:58:27.470Z,23.22
2022-08-07T14:01:59.136Z,23.22
2022-08-07T14:05:05.101Z,23.22
2022-08-07T14:08:10.113Z,23.23
2022-08-07T14:11:17.474Z,23.22
2022-08-07T14:14:28.361Z,23.23
2022-08-07T14:18:15.939Z,23.26
2022-08-07T14:21:08.321Z,23.26
2022-08-07T14:24:22.934Z,23.26
2022-08-07T14:28:10.505Z,23.28
2022-08-07T14:30:56.483Z,23.24
2022-08-07T14:34:01.079Z,23.24
2022-08-07T14:37:16.268Z,23.26
2022-08-07T14:40:27.021Z,23.26
2022-08-07T14:43:57.356Z,23.27
2022-08-07T14:47:14.241Z,23.28
2022-08-07T14:50:20.541Z,23.26
2022-08-07T14:54:05.439Z,23.27
2022-08-07T14:56:51.846Z,23.27
2022-08-07T15:00:05.568Z,23.28
2022-08-07T15:03:16.618Z,23.34
2022-08-07T15:06:25.719Z,23.37
2022-08-07T15:09:58.885Z,23.41
2022-08-07T15:12:59.214Z,23.42
2022-08-07T15:16:11.418Z,23.44
2022-08-07T15:19:19.434Z,23.45
2022-08-07T15:22:53.659Z,23.49
2022-08-07T15:39:17.248Z,23.53
2022-08-07T15:42:52.418Z,23.55
2022-08-07T15:46:02.432Z,23.55
2022-08-07T15:49:15.475Z,23.55
2022-08-07T15:52:30.562Z,23.54
2022-08-07T15:56:01.945Z,23.54
2022-08-07T15:59:03.782Z,23.55
2022-08-07T16:02:09.331Z,23.54
2022-08-07T16:05:23.136Z,23.54
2022-08-07T16:08:41.079Z,23.54
2022-08-07T16:11:58.060Z,23.53
2022-08-07T16:15:56.339Z,23.54
2022-08-07T16:18:55.953Z,23.52
2022-08-07T16:22:17.726Z,23.51
2022-08-07T16:25:54.471Z,23.50
2022-08-07T16:30:05.662Z,23.50
2022-08-07T16:32:46.494Z,23.49
2022-08-07T16:36:20.871Z,23.47
2022-08-07T16:39:48.714Z,23.49
2022-08-07T16:43:01.650Z,23.49
2022-08-07T16:47:04.768Z,23.48
2022-08-07T16:50:38.777Z,23.50
2022-08-07T16:54:19.015Z,23.53
2022-08-07T16:58:01.771Z,23.53
2022-08-07T17:01:16.169Z,23.55
2022-08-07T17:04:29.517Z,23.56
2022-08-07T17:07:55.215Z,23.57
2022-08-07T17:11:14.262Z,23.58
2022-08-07T17:14:24.719Z,23.58
2022-08-07T17:17:46.348Z,23.61
2022-08-07T17:20:54.705Z,23.62
2022-08-07T17:24:23.657Z,23.65
2022-08-07T17:27:50.766Z,23.66
2022-08-07T17:31:15.952Z,23.68
2022-08-07T17:35:02.703Z,23.66
2022-08-07T17:38:09.472Z,23.65
2022-08-07T17:42:03.634Z,23.63
2022-08-07T17:44:51.084Z,23.63
2022-08-07T17:48:03.110Z,23.62
2022-08-07T17:51:16.291Z,23.63
2022-08-07T17:54:39.675Z,23.63
2022-08-07T17:58:04.217Z,23.61
2022-08-07T18:01:21.186Z,23.61
2022-08-07T18:04:43.265Z,23.60
2022-08-07T18:08:12.742Z,23.59
2022-08-07T18:12:07.257Z,23.59
2022-08-07T18:14:53.490Z,23.59
2022-08-07T18:18:47.449Z,23.57
2022-08-07T18:21:54.922Z,23.56
2022-08-07T18:25:01.625Z,23.57
2022-08-07T18:28:35.739Z,23.56
2022-08-07T18:31:50.513Z,23.55
2022-08-07T18:35:15.795Z,23.55
2022-08-07T18:38:56.828Z,23.54
2022-08-07T18:42:17.430Z,23.54
2022-08-07T18:45:44.543Z,23.55
2022-08-07T18:50:32.922Z,23.54
2022-08-07T18:52:53.720Z,23.54
2022-08-07T18:56:08.445Z,23.53
2022-08-07T18:59:48.028Z,23.54
2022-08-07T19:03:12.297Z,23.53
2022-08-07T19:06:33.886Z,23.55
2022-08-07T19:09:57.827Z,23.55
2022-08-07T19:13:10.113Z,23.55
2022-08-07T19:16:43.050Z,23.54
2022-08-07T19:20:04.498Z,23.55
2022-08-07T19:23:18.821Z,23.55
2022-08-07T19:26:28.896Z,23.54
2022-08-07T19:31:03.258Z,23.54
2022-08-07T19:33:08.287Z,23.54
2022-08-07T19:36:17.799Z,23.53
2022-08-07T19:39:56.860Z,23.54
2022-08-07T19:42:59.119Z,23.54
2022-08-07T19:46:07.838Z,23.53
2022-08-07T19:49:17.462Z,23.53
2022-08-07T19:52:42.169Z,23.53
2022-08-07T19:55:57.928Z,23.53
2022-08-07T19:59:08.600Z,23.54
2022-08-07T20:02:29.222Z,23.54
2022-08-07T20:06:00.785Z,23.53
2022-08-07T20:09:02.901Z,23.53
2022-08-07T20:12:31.128Z,23.53
2022-08-07T20:15:37.300Z,23.52
2022-08-07T20:18:43.533Z,23.51
2022-08-07T20:21:51.269Z,23.50
2022-08-07T20:25:00.169Z,23.48
2022-08-07T20:28:07.734Z,23.48
2022-08-07T20:31:21.333Z,23.49
2022-08-07T20:34:49.196Z,23.49
2022-08-07T20:37:57.724Z,23.48
2022-08-07T20:41:05.431Z,23.48
2022-08-07T20:44:12.455Z,23.48
2022-08-07T20:47:25.133Z,23.48
2022-08-07T20:50:30.604Z,23.47
2022-08-07T20:54:04.700Z,23.46
2022-08-07T20:57:01.557Z,23.47
2022-08-07T21:00:09.563Z,23.46
2022-08-07T21:03:18.917Z,23.46
2022-08-07T21:06:28.140Z,23.45
2022-08-07T21:09:53.322Z,23.45
2022-08-07T21:13:07.486Z,23.45
2022-08-07T21:16:14.330Z,23.45
2022-08-07T21:19:21.034Z,23.46
2022-08-07T21:22:40.128Z,23.45
2022-08-07T21:26:09.325Z,23.45
2022-08-07T21:29:19.394Z,23.45
2022-08-07T21:32:43.892Z,23.44
2022-08-07T21:36:05.320Z,23.46
2022-08-07T21:39:45.575Z,23.45
2022-08-07T21:42:51.052Z,23.44
2022-08-07T21:46:10.452Z,23.45
2022-08-07T21:50:02.086Z,23.43
2022-08-07T21:53:08.538Z,23.43
2022-08-07T21:56:16.859Z,23.44
2022-08-07T22:00:05.443Z,23.43
2022-08-07T22:03:17.159Z,23.42
2022-08-07T22:06:45.024Z,23.42
2022-08-07T22:09:54.395Z,23.42
2022-08-07T22:13:00.889Z,23.42
2022-08-07T22:16:43.356Z,23.42
2022-08-07T22:19:37.142Z,23.39
2022-08-07T22:22:44.941Z,23.40
2022-08-07T22:25:59.098Z,23.38
2022-08-07T22:29:13.651Z,23.39
2022-08-07T22:32:25.365Z,23.36
2022-08-07T22:35:40.282Z,23.35
2022-08-07T22:38:50.298Z,23.36
2022-08-07T22:42:10.424Z,23.36
2022-08-07T22:46:40.662Z,23.35
2022-08-07T22:49:33.638Z,23.35
2022-08-07T22:53:05.577Z,23.34
2022-08-07T22:56:13.123Z,23.35
2022-08-07T22:59:49.931Z,23.34
2022-08-07T23:03:11.985Z,23.33
2022-08-07T23:06:37.158Z,23.33
2022-08-07T23:10:05.219Z,23.33
2022-08-07T23:14:08.898Z,23.33
2022-08-07T23:17:20.492Z,23.32
2022-08-07T23:20:52.420Z,23.31
2022-08-07T23:24:18.141Z,23.30
2022-08-07T23:28:21.632Z,23.30
2022-08-07T23:32:49.421Z,23.30
2022-08-07T23:35:01.267Z,23.30
2022-08-07T23:38:36.791Z,23.31
2022-08-07T23:42:05.056Z,23.31
2022-08-07T23:45:33.250Z,23.29
2022-08-07T23:49:06.582Z,23.29
2022-08-07T23:53:00.145Z,23.27
2022-08-07T23:55:57.360Z,23.27
2022-08-07T23:59:25.521Z,23.25
